Time;durP1;ratioP1;P1;durP2;ratioP2;P2;SDS_P1;SDS_P2;PMS_P1;PMS_P2;Temp;Humidity;BMP_temperature;BMP_pressure;BME280_temperature;BME280_humidity;BME280_pressure;Samples;Min_cycle;Max_cycle;Signal;HPM_P1;HPM_P2
2022/12/18 00:01:31;;;;;;;25.53;14.93;;;-6.10;99.90;;;;;;5008895;28;20050;-81
2022/12/18 00:04:00;;;;;;;31.25;14.85;;;-6.10;99.90;;;;;;5008711;28;20287;-81
2022/12/18 00:06:33;;;;;;;22.27;14.40;;;-6.20;99.90;;;;;;5009438;28;20042;-81
2022/12/18 00:09:02;;;;;;;39.17;16.98;;;-6.20;99.90;;;;;;5007868;28;20046;-81
2022/12/18 00:11:31;;;;;;;53.63;26.42;;;-6.10;99.90;;;;;;5008583;28;20261;-81
2022/12/18 00:14:00;;;;;;;21.90;9.90;;;-6.10;99.90;;;;;;5007299;28;20057;-81
2022/12/18 00:16:29;;;;;;;12.38;11.43;;;-6.10;99.90;;;;;;5008770;28;20049;-81
2022/12/18 00:18:58;;;;;;;10.50;5.78;;;-6.10;99.90;;;;;;5007677;28;20054;-81
2022/12/18 00:21:27;;;;;;;36.13;19.90;;;-6.10;99.90;;;;;;5026257;28;20045;-81
2022/12/18 00:23:55;;;;;;;42.20;20.48;;;-6.10;99.90;;;;;;5009079;28;20254;-81
2022/12/18 00:26:28;;;;;;;44.75;19.65;;;-6.10;99.90;;;;;;5028254;28;20394;-81
2022/12/18 00:29:01;;;;;;;32.92;15.93;;;-6.00;99.90;;;;;;5024654;28;20041;-81
2022/12/18 00:31:33;;;;;;;18.40;16.60;;;-6.00;99.90;;;;;;5028461;28;20057;-81
2022/12/18 00:34:02;;;;;;;27.60;17.00;;;-6.00;99.90;;;;;;5028087;28;20393;-81
2022/12/18 00:36:33;;;;;;;44.35;17.80;;;-6.00;99.90;;;;;;5028167;28;20046;-81
2022/12/18 00:39:03;;;;;;;28.40;16.77;;;-6.00;99.90;;;;;;5014378;28;20417;-81
2022/12/18 00:44:18;;;;;;;32.65;15.68;;;-6.00;99.90;;;;;;5008404;28;20414;-81
2022/12/18 00:46:47;;;;;;;8.38;6.72;;;-6.00;99.90;;;;;;5008402;28;20402;-81
2022/12/18 00:49:17;;;;;;;32.22;17.45;;;-6.00;99.90;;;;;;5008313;28;20828;-81
2022/12/18 00:51:46;;;;;;;29.88;14.32;;;-6.00;99.90;;;;;;5007861;28;20394;-81
2022/12/18 00:54:14;;;;;;;38.58;18.48;;;-6.00;99.90;;;;;;4990353;28;20050;-81
2022/12/18 00:56:41;;;;;;;24.30;17.70;;;-6.00;99.90;;;;;;5008208;28;20045;-81
2022/12/18 00:59:17;;;;;;;31.13;15.00;;;-5.90;99.90;;;;;;4991232;28;20413;-81
2022/12/18 01:01:45;;;;;;;38.15;17.92;;;-5.90;99.90;;;;;;5006329;28;20061;-82
2022/12/18 01:04:14;;;;;;;35.40;16.55;;;-6.00;99.90;;;;;;5010761;28;20026;-81
2022/12/18 01:06:45;;;;;;;16.70;10.90;;;-6.00;99.90;;;;;;5011152;28;20060;-81
2022/12/18 01:09:13;;;;;;;23.77;14.88;;;-5.90;99.90;;;;;;5011244;28;20061;-81
2022/12/18 01:11:41;;;;;;;87.43;15.93;;;-5.90;99.90;;;;;;4993995;28;20232;-81
2022/12/18 01:14:09;;;;;;;23.38;13.82;;;-5.90;99.90;;;;;;5010964;28;20070;-82
2022/12/18 01:16:37;;;;;;;35.42;15.23;;;-5.90;99.90;;;;;;5011880;28;20042;-81
2022/12/18 01:19:05;;;;;;;34.30;18.40;;;-5.90;99.90;;;;;;5010836;28;20038;-81
2022/12/18 01:21:33;;;;;;;31.15;17.58;;;-5.80;99.90;;;;;;5029205;28;20037;-81
2022/12/18 01:24:04;;;;;;;15.57;10.05;;;-5.90;99.90;;;;;;5029024;28;20056;-82
2022/12/18 01:26:32;;;;;;;31.23;17.52;;;-5.90;99.90;;;;;;5030473;28;20045;-81
2022/12/18 01:29:00;;;;;;;33.53;19.60;;;-5.80;99.90;;;;;;5031355;28;20413;-81
2022/12/18 01:31:31;;;;;;;26.58;18.98;;;-5.80;99.90;;;;;;5029857;28;20050;-82
2022/12/18 01:34:03;;;;;;;22.15;14.45;;;-5.90;99.90;;;;;;5030779;28;20037;-82
2022/12/18 01:36:34;;;;;;;33.38;16.27;;;-5.80;99.90;;;;;;5013696;28;20129;-82
2022/12/18 01:39:05;;;;;;;15.32;13.82;;;-5.90;99.90;;;;;;5018207;28;20041;-82
2022/12/18 01:44:56;;;;;;;32.03;15.35;;;-5.80;99.90;;;;;;5010997;28;20053;-81
2022/12/18 01:47:40;;;;;;;38.53;19.83;;;-5.80;99.90;;;;;;5009941;28;20054;-82
2022/12/18 01:50:30;;;;;;;30.02;14.20;;;-5.80;99.90;;;;;;5009733;28;20050;-82
2022/12/18 01:53:09;;;;;;;32.40;17.17;;;-5.70;99.90;;;;;;5008758;28;20710;-82
2022/12/18 01:55:58;;;;;;;33.58;15.88;;;-5.70;99.90;;;;;;4993242;28;20060;-82
2022/12/18 01:58:45;;;;;;;29.58;17.00;;;-5.70;99.90;;;;;;5009922;28;20054;-82
2022/12/18 02:01:13;;;;;;;40.55;15.82;;;-5.70;99.90;;;;;;5011580;28;20049;-81
2022/12/18 02:03:44;;;;;;;20.23;14.07;;;-5.70;99.90;;;;;;5009776;28;20046;-82
2022/12/18 02:06:33;;;;;;;37.50;16.85;;;-5.70;99.90;;;;;;5010120;28;20296;-81
2022/12/18 02:09:22;;;;;;;14.00;11.57;;;-5.80;99.90;;;;;;5007780;28;20418;-82
2022/12/18 02:12:13;;;;;;;21.73;12.65;;;-5.80;99.90;;;;;;5010763;28;20058;-82
2022/12/18 02:14:58;;;;;;;20.00;10.27;;;-5.80;99.90;;;;;;5009130;28;20045;-82
2022/12/18 02:17:54;;;;;;;32.63;17.92;;;-5.80;99.90;;;;;;5007813;28;20417;-81
2022/12/18 02:20:31;;;;;;;25.13;15.73;;;-5.80;99.90;;;;;;5010859;28;20045;-82
2022/12/18 02:23:26;;;;;;;58.30;12.98;;;-5.80;99.90;;;;;;5028125;28;20281;-82
2022/12/18 02:26:10;;;;;;;10.88;9.10;;;-5.80;99.90;;;;;;5028642;28;20041;-82
2022/12/18 02:28:44;;;;;;;31.42;15.55;;;-5.80;99.90;;;;;;5028177;28;20476;-82
2022/12/18 02:31:22;;;;;;;23.60;11.23;;;-5.80;99.90;;;;;;5028922;28;20049;-82
2022/12/18 02:33:56;;;;;;;42.20;12.68;;;-5.90;99.90;;;;;;5012353;28;20065;-82
2022/12/18 02:36:27;;;;;;;24.15;13.95;;;-5.90;99.90;;;;;;5012623;28;20050;-80
2022/12/18 02:38:58;;;;;;;36.22;14.20;;;-5.90;99.90;;;;;;5017087;28;20046;-81
2022/12/18 02:41:28;;;;;;;29.55;14.85;;;-5.80;99.90;;;;;;5008546;28;20053;-81
2022/12/18 02:43:58;;;;;;;17.75;16.33;;;-5.80;99.90;;;;;;4993114;28;20433;-81
2022/12/18 02:46:39;;;;;;;24.45;12.23;;;-5.80;99.90;;;;;;5009183;28;20066;-81
2022/12/18 02:49:35;;;;;;;23.58;13.35;;;-5.80;99.90;;;;;;4992460;28;20421;-81
2022/12/18 02:52:21;;;;;;;25.42;9.50;;;-5.80;99.90;;;;;;5009016;28;20046;-81
2022/12/18 02:55:14;;;;;;;12.27;9.82;;;-5.80;99.90;;;;;;4993022;28;20045;-81
2022/12/18 02:57:53;;;;;;;30.55;15.40;;;-5.80;99.90;;;;;;4992963;28;20034;-82
2022/12/18 03:00:38;;;;;;;20.38;11.48;;;-5.80;99.90;;;;;;5008196;28;20042;-81
2022/12/18 03:03:10;;;;;;;24.27;15.17;;;-5.80;99.90;;;;;;5008803;28;20049;-81
2022/12/18 03:05:50;;;;;;;31.15;16.52;;;-5.70;99.90;;;;;;5008654;28;20277;-81
2022/12/18 03:08:22;;;;;;;10.25;7.15;;;-5.70;99.90;;;;;;5007546;28;20050;-81
2022/12/18 03:11:07;;;;;;;8.55;5.07;;;-5.70;99.90;;;;;;4992494;28;20050;-81
2022/12/18 03:13:55;;;;;;;29.33;13.20;;;-5.80;99.90;;;;;;5009996;28;20065;-82
2022/12/18 03:16:28;;;;;;;23.83;15.43;;;-5.80;99.90;;;;;;5008199;28;20041;-82
2022/12/18 03:19:00;;;;;;;25.77;14.63;;;-5.70;99.90;;;;;;4994613;28;20054;-81
2022/12/18 03:21:42;;;;;;;29.38;12.43;;;-5.70;99.90;;;;;;5026214;28;20044;-82
2022/12/18 03:24:11;;;;;;;24.92;13.07;;;-5.70;99.90;;;;;;5028079;28;20049;-82
2022/12/18 03:26:44;;;;;;;24.73;14.65;;;-5.70;99.90;;;;;;4996770;28;20045;-81
2022/12/18 03:29:24;;;;;;;30.20;13.70;;;-5.70;99.90;;;;;;5000740;28;20034;-82
2022/12/18 03:31:56;;;;;;;21.77;10.32;;;-5.70;99.90;;;;;;5007091;28;20473;-82
2022/12/18 03:34:31;;;;;;;30.67;14.13;;;-5.70;99.90;;;;;;5007470;28;20042;-82
2022/12/18 03:37:04;;;;;;;30.58;15.07;;;-5.70;99.90;;;;;;5005820;28;20046;-82
2022/12/18 03:39:33;;;;;;;;;;;-5.60;99.90;;;;;;4992760;28;20045;-82
2022/12/18 03:42:38;;;;;;;28.33;13.52;;;-5.70;99.90;;;;;;5008835;28;19932;-81
2022/12/18 03:45:37;;;;;;;34.67;17.90;;;-5.60;99.90;;;;;;4986088;28;20050;-81
2022/12/18 03:48:18;;;;;;;34.53;17.00;;;-5.60;99.90;;;;;;5008741;28;20046;-82
2022/12/18 03:51:02;;;;;;;31.65;14.95;;;-5.60;99.90;;;;;;4991699;28;20049;-82
2022/12/18 03:53:52;;;;;;;;;;;-5.60;99.90;;;;;;5007080;28;20046;-82
2022/12/18 03:56:26;;;;;;;27.77;14.95;;;-5.60;99.90;;;;;;5007417;28;19925;-81
2022/12/18 03:58:56;;;;;;;22.83;14.07;;;-5.60;99.90;;;;;;5007623;28;20104;-82
2022/12/18 04:01:31;;;;;;;;;;;-5.60;99.90;;;;;;5007111;28;20057;-82
2022/12/18 04:04:01;;;;;;;26.48;14.80;;;-5.60;99.90;;;;;;4991129;28;19921;-82
2022/12/18 04:06:36;;;;;;;25.67;15.52;;;-5.70;99.90;;;;;;5008155;28;20397;-83
2022/12/18 04:09:05;;;;;;;27.90;13.95;;;-5.70;99.90;;;;;;5006808;28;20049;-82
2022/12/18 04:11:37;;;;;;;21.40;11.82;;;-5.70;99.90;;;;;;4990826;28;20050;-81
2022/12/18 04:14:05;;;;;;;33.90;15.07;;;-5.80;99.90;;;;;;5007771;28;20042;-82
2022/12/18 04:16:42;;;;;;;20.77;10.82;;;-5.70;99.90;;;;;;4991090;28;20057;-82
2022/12/18 04:19:13;;;;;;;32.65;12.25;;;-5.70;99.90;;;;;;4972315;28;20042;-81
2022/12/18 04:21:43;;;;;;;14.63;9.65;;;-5.80;99.90;;;;;;5026418;28;20050;-82
2022/12/18 04:24:12;;;;;;;12.35;11.15;;;-5.80;99.90;;;;;;5025550;28;20273;-82
2022/12/18 04:26:46;;;;;;;20.40;9.80;;;-5.90;99.90;;;;;;5028350;28;20045;-82
2022/12/18 04:29:21;;;;;;;22.73;12.40;;;-5.90;99.90;;;;;;5025799;28;20061;-82
2022/12/18 04:31:49;;;;;;;23.73;12.57;;;-5.90;99.90;;;;;;5026426;28;20048;-82
2022/12/18 04:34:17;;;;;;;19.60;11.02;;;-5.90;99.90;;;;;;5028104;28;20057;-82
2022/12/18 04:36:49;;;;;;;19.90;14.20;;;-6.00;99.90;;;;;;5009482;28;20041;-82
2022/12/18 04:39:18;;;;;;;21.60;12.27;;;-5.90;99.90;;;;;;5011535;28;20060;-82
2022/12/18 04:41:47;;;;;;;19.25;11.38;;;-5.90;99.90;;;;;;5006527;28;20417;-82
2022/12/18 04:44:15;;;;;;;28.77;15.90;;;-6.00;99.90;;;;;;4990922;28;20034;-82
2022/12/18 04:46:43;;;;;;;15.07;10.77;;;-6.00;99.90;;;;;;5008311;28;20057;-81
2022/12/18 04:49:11;;;;;;;25.58;13.70;;;-6.00;99.90;;;;;;5007828;28;20056;-82
2022/12/18 04:51:39;;;;;;;27.63;12.93;;;-6.00;99.90;;;;;;4974160;28;20437;-81
2022/12/18 04:54:06;;;;;;;14.43;9.60;;;-5.90;99.90;;;;;;5006875;28;20053;-82
2022/12/18 04:56:34;;;;;;;36.33;16.60;;;-6.00;99.90;;;;;;5008480;28;20259;-82
2022/12/18 04:59:01;;;;;;;28.27;14.85;;;-6.00;99.90;;;;;;5007576;28;20409;-82
2022/12/18 05:01:29;;;;;;;30.13;17.10;;;-5.90;99.90;;;;;;5007559;28;20433;-82
2022/12/18 05:04:02;;;;;;;26.95;13.75;;;-5.90;99.90;;;;;;5006140;28;20464;-82
2022/12/18 05:06:29;;;;;;;19.58;12.38;;;-5.90;99.90;;;;;;5008456;28;20050;-82
2022/12/18 05:08:57;;;;;;;25.25;14.15;;;-5.90;99.90;;;;;;5006768;28;20421;-82
2022/12/18 05:11:25;;;;;;;23.13;12.05;;;-5.90;99.90;;;;;;5008344;28;20046;-82
2022/12/18 05:13:55;;;;;;;22.23;11.85;;;-5.90;99.90;;;;;;5006273;28;20133;-83
2022/12/18 05:16:23;;;;;;;10.85;6.90;;;-6.00;99.90;;;;;;5007502;28;20046;-82
2022/12/18 05:18:51;;;;;;;16.30;10.38;;;-6.10;99.90;;;;;;5006864;28;20046;-83
2022/12/18 05:21:18;;;;;;;27.23;12.68;;;-6.10;99.90;;;;;;5022978;28;20053;-82
2022/12/18 05:23:46;;;;;;;14.00;9.90;;;-6.10;99.90;;;;;;5025223;28;20497;-82
2022/12/18 05:26:18;;;;;;;33.90;11.63;;;-6.20;99.90;;;;;;5028030;28;20049;-83
2022/12/18 05:28:45;;;;;;;21.70;13.68;;;-6.20;99.90;;;;;;5009835;28;20045;-82
2022/12/18 05:31:13;;;;;;;28.85;12.40;;;-6.20;99.90;;;;;;5027487;28;20033;-82
2022/12/18 05:33:41;;;;;;;19.23;10.27;;;-6.20;99.90;;;;;;5026071;28;20441;-83
2022/12/18 05:36:09;;;;;;;14.50;5.53;;;-6.20;99.90;;;;;;5027417;28;20057;-82
2022/12/18 05:38:39;;;;;;;27.50;12.45;;;-6.30;99.90;;;;;;5018101;28;20433;-83
2022/12/18 05:41:08;;;;;;;24.23;11.63;;;-6.30;99.90;;;;;;5005298;28;20050;-82
2022/12/18 05:43:37;;;;;;;11.38;9.07;;;-6.30;99.90;;;;;;4996368;28;20057;-83
2022/12/18 05:46:07;;;;;;;22.02;10.75;;;-6.30;99.90;;;;;;5007594;28;20461;-82
2022/12/18 05:48:37;;;;;;;21.00;10.82;;;-6.40;99.90;;;;;;5005852;28;20057;-83
2022/12/18 05:51:14;;;;;;;17.75;9.32;;;-6.40;99.90;;;;;;5009377;28;20399;-82
2022/12/18 05:53:43;;;;;;;7.70;7.10;;;-6.40;99.90;;;;;;5011690;28;20042;-82
2022/12/18 05:56:22;;;;;;;19.55;10.23;;;-6.30;99.90;;;;;;5010903;28;20060;-82
2022/12/18 05:58:54;;;;;;;16.67;10.40;;;-6.30;99.90;;;;;;5009972;28;20057;-83
2022/12/18 06:01:26;;;;;;;31.67;14.25;;;-6.30;99.90;;;;;;5010681;28;20045;-82
2022/12/18 06:03:55;;;;;;;18.05;10.77;;;-6.20;99.90;;;;;;5009332;28;20041;-82
2022/12/18 06:06:26;;;;;;;23.15;10.40;;;-6.20;99.90;;;;;;5011512;28;20062;-83
2022/12/18 06:08:54;;;;;;;18.08;8.68;;;-6.20;99.90;;;;;;5009940;28;20046;-83
2022/12/18 06:11:25;;;;;;;21.02;11.45;;;-6.20;99.90;;;;;;5009789;28;20057;-83
2022/12/18 06:13:54;;;;;;;26.73;13.85;;;-6.30;99.90;;;;;;5010958;28;20050;-83
2022/12/18 06:16:26;;;;;;;18.73;11.77;;;-6.40;99.90;;;;;;5010185;28;20068;-84
2022/12/18 06:19:02;;;;;;;22.55;10.93;;;-6.50;99.90;;;;;;4996312;28;20434;-83
2022/12/18 06:21:31;;;;;;;22.73;11.98;;;-6.50;99.90;;;;;;5027919;28;20054;-83
2022/12/18 06:24:01;;;;;;;18.30;11.98;;;-6.60;99.90;;;;;;5029680;28;20408;-83
2022/12/18 06:26:28;;;;;;;14.77;9.30;;;-6.70;99.90;;;;;;5012775;28;20041;-83
2022/12/18 06:28:56;;;;;;;4.60;4.38;;;-6.60;99.90;;;;;;5028840;28;20100;-83
2022/12/18 06:31:25;;;;;;;29.40;12.25;;;-6.60;99.90;;;;;;5012890;28;20666;-83
2022/12/18 06:33:52;;;;;;;18.75;10.43;;;-6.70;99.90;;;;;;5029689;28;20037;-83
2022/12/18 06:36:21;;;;;;;19.95;11.88;;;-6.70;99.90;;;;;;5029847;28;20095;-83
2022/12/18 06:38:48;;;;;;;23.15;11.82;;;-6.70;99.90;;;;;;5017971;28;20054;-83
2022/12/18 06:41:18;;;;;;;22.80;11.07;;;-6.70;99.90;;;;;;5009609;28;20068;-83
2022/12/18 06:43:46;;;;;;;30.92;12.70;;;-6.70;99.90;;;;;;5008403;28;20065;-83
2022/12/18 06:46:14;;;;;;;30.40;15.18;;;-6.70;99.90;;;;;;5009246;28;20410;-83
2022/12/18 06:48:42;;;;;;;28.77;10.55;;;-6.70;99.90;;;;;;5006108;28;20053;-83
2022/12/18 06:51:09;;;;;;;20.73;13.73;;;-6.80;99.90;;;;;;5009291;28;20346;-83
2022/12/18 06:53:37;;;;;;;27.40;11.00;;;-6.70;99.90;;;;;;5008308;28;20046;-82
2022/12/18 06:56:06;;;;;;;21.75;14.93;;;-6.80;99.90;;;;;;5009913;28;20666;-82
2022/12/18 06:58:37;;;;;;;;;;;-6.70;99.90;;;;;;5010981;28;20058;-83
2022/12/18 07:01:07;;;;;;;26.88;12.30;;;-6.70;99.90;;;;;;5008801;28;19929;-83
2022/12/18 07:03:36;;;;;;;17.95;9.60;;;-6.70;99.90;;;;;;5010457;28;20056;-83
2022/12/18 07:06:04;;;;;;;19.98;9.43;;;-6.70;99.90;;;;;;5008682;28;20410;-83
2022/12/18 07:08:32;;;;;;;27.83;11.43;;;-6.70;99.90;;;;;;5008937;28;20049;-82
2022/12/18 07:11:04;;;;;;;56.20;12.48;;;-6.70;99.90;;;;;;5008177;28;20058;-83
2022/12/18 07:13:31;;;;;;;24.42;11.73;;;-6.70;99.90;;;;;;5009747;28;20038;-83
2022/12/18 07:16:07;;;;;;;19.95;9.70;;;-6.70;99.90;;;;;;5009371;28;20042;-82
2022/12/18 07:18:44;;;;;;;17.52;9.90;;;-6.70;99.90;;;;;;5004519;28;20058;-83
2022/12/18 07:21:17;;;;;;;25.38;10.23;;;-6.70;99.90;;;;;;5020188;28;20046;-83
2022/12/18 07:23:47;;;;;;;26.38;12.52;;;-6.70;99.90;;;;;;5028270;28;20065;-83
2022/12/18 07:26:18;;;;;;;18.38;10.52;;;-6.80;99.90;;;;;;5029817;28;20356;-83
2022/12/18 07:28:46;;;;;;;44.83;14.27;;;-6.80;99.90;;;;;;5028387;28;20053;-83
2022/12/18 07:31:17;;;;;;;21.95;13.15;;;-6.90;99.90;;;;;;5028061;28;20046;-82
2022/12/18 07:33:45;;;;;;;28.05;12.02;;;-6.90;99.90;;;;;;5027575;28;20040;-83
2022/12/18 07:36:14;;;;;;;15.20;9.30;;;-6.80;99.90;;;;;;5027131;28;20045;-83
2022/12/18 07:38:42;;;;;;;7.95;5.97;;;-6.80;99.90;;;;;;5017571;28;20056;-83
2022/12/18 07:41:13;;;;;;;13.35;9.50;;;-6.80;99.90;;;;;;5008069;28;20057;-82
2022/12/18 07:43:41;;;;;;;7.70;5.57;;;-6.80;99.90;;;;;;5008889;28;20050;-82
2022/12/18 07:46:13;;;;;;;19.02;8.52;;;-6.90;99.90;;;;;;5007420;28;20050;-82
2022/12/18 07:48:42;;;;;;;21.95;11.30;;;-6.90;99.90;;;;;;5006985;28;20050;-83
2022/12/18 07:51:16;;;;;;;19.63;10.40;;;-6.90;99.90;;;;;;5009110;28;20049;-83
2022/12/18 07:53:45;;;;;;;20.80;14.77;;;-6.80;99.90;;;;;;5007484;28;20046;-82
2022/12/18 07:56:15;;;;;;;28.92;13.32;;;-6.80;99.90;;;;;;5007051;28;20045;-83
2022/12/18 07:58:59;;;;;;;10.15;5.07;;;-6.90;99.90;;;;;;5009383;28;20069;-83
2022/12/18 08:01:27;;;;;;;24.77;7.03;;;-6.90;99.90;;;;;;5008487;28;20368;-83
2022/12/18 08:03:55;;;;;;;19.55;10.82;;;-6.90;99.90;;;;;;5008330;28;20421;-83
2022/12/18 08:06:23;;;;;;;13.80;8.55;;;-7.00;99.90;;;;;;5008981;28;20061;-83
2022/12/18 08:08:53;;;;;;;16.60;10.20;;;-7.00;99.90;;;;;;5007787;28;20068;-82
2022/12/18 08:11:21;;;;;;;35.38;11.13;;;-7.00;99.90;;;;;;5008197;28;20050;-82
2022/12/18 08:13:49;;;;;;;11.50;8.40;;;-6.90;99.90;;;;;;5006502;28;20034;-83
2022/12/18 08:16:17;;;;;;;14.95;12.82;;;-7.00;99.90;;;;;;5009241;28;20383;-83
2022/12/18 08:18:46;;;;;;;20.58;8.73;;;-7.00;99.90;;;;;;5006778;28;20496;-83
2022/12/18 08:21:22;;;;;;;15.70;9.93;;;-6.90;99.90;;;;;;5001676;28;20430;-82
2022/12/18 08:23:52;;;;;;;10.27;9.35;;;-6.80;99.90;;;;;;5019073;28;20042;-83
2022/12/18 08:26:20;;;;;;;16.20;9.55;;;-6.80;99.90;;;;;;5020773;28;20043;-82
2022/12/18 08:28:49;;;;;;;12.20;10.00;;;-6.70;99.90;;;;;;5023717;28;20038;-83
2022/12/18 08:31:18;;;;;;;60.10;11.77;;;-6.60;99.90;;;;;;5009448;28;20045;-82
2022/12/18 08:33:52;;;;;;;22.10;10.88;;;-6.60;99.90;;;;;;5003145;28;20042;-82
2022/12/18 08:36:20;;;;;;;15.80;11.05;;;-6.60;99.90;;;;;;5009799;28;20046;-83
2022/12/18 08:38:48;;;;;;;5.50;4.75;;;-6.60;99.90;;;;;;5011190;28;20061;-82
2022/12/18 08:41:17;;;;;;;22.95;10.98;;;-6.50;99.90;;;;;;5002746;28;20045;-82
2022/12/18 08:46:42;;;;;;;15.90;10.52;;;-6.40;99.90;;;;;;5002382;28;20050;-83
2022/12/18 08:49:10;;;;;;;28.63;8.75;;;-6.30;99.90;;;;;;4995855;28;20034;-83
2022/12/18 08:51:41;;;;;;;18.40;11.95;;;-6.30;99.90;;;;;;4986889;28;20042;-83
2022/12/18 08:54:12;;;;;;;13.48;9.20;;;-6.30;99.90;;;;;;5002932;28;20039;-83
2022/12/18 08:56:40;;;;;;;16.98;9.88;;;-6.20;99.90;;;;;;5001806;28;20429;-83
2022/12/18 08:59:14;;;;;;;17.20;10.02;;;-6.10;99.90;;;;;;5021370;28;20050;-83
2022/12/18 09:01:47;;;;;;;22.80;8.93;;;-6.10;99.90;;;;;;5005395;28;20050;-83
2022/12/18 09:04:15;;;;;;;29.30;10.25;;;-6.00;99.90;;;;;;4996591;28;20045;-83
2022/12/18 09:06:43;;;;;;;24.48;9.82;;;-5.90;99.90;;;;;;5007709;28;20050;-83
2022/12/18 09:09:11;;;;;;;22.88;8.68;;;-5.70;99.90;;;;;;5006862;28;20084;-83
2022/12/18 09:11:38;;;;;;;19.55;11.02;;;-5.70;99.90;;;;;;5003197;28;20560;-83
2022/12/18 09:14:06;;;;;;;21.23;9.95;;;-5.80;99.90;;;;;;4986620;28;20046;-83
2022/12/18 09:16:34;;;;;;;8.45;7.65;;;-5.80;99.90;;;;;;4987914;28;20047;-83
2022/12/18 09:19:04;;;;;;;22.42;10.75;;;-5.80;99.90;;;;;;4988567;28;20588;-83
2022/12/18 09:21:38;;;;;;;25.13;10.60;;;-5.80;99.90;;;;;;5010944;28;20045;-83
2022/12/18 09:24:13;;;;;;;32.67;11.73;;;-5.80;99.90;;;;;;5007109;28;20049;-83
2022/12/18 09:26:41;;;;;;;30.17;12.02;;;-5.80;99.90;;;;;;5011913;28;20049;-83
2022/12/18 09:29:11;;;;;;;20.77;11.38;;;-5.60;99.90;;;;;;5010191;28;20057;-83
2022/12/18 09:31:39;;;;;;;17.27;10.00;;;-5.60;99.90;;;;;;5010907;28;20049;-83
2022/12/18 09:34:07;;;;;;;18.65;8.63;;;-5.50;99.90;;;;;;5009382;28;20046;-83
2022/12/18 09:36:35;;;;;;;17.88;9.25;;;-5.30;99.90;;;;;;5026755;28;20040;-84
2022/12/18 09:39:03;;;;;;;25.55;11.20;;;-5.60;99.90;;;;;;5013478;28;20413;-82
2022/12/18 09:41:42;;;;;;;21.48;10.82;;;-5.80;99.90;;;;;;5009511;28;20448;-83
2022/12/18 09:44:16;;;;;;;12.27;9.18;;;-5.80;99.90;;;;;;5022456;28;20396;-83
2022/12/18 09:47:09;;;;;;;31.98;10.85;;;-5.80;99.90;;;;;;5016086;28;20049;-83
2022/12/18 09:49:46;;;;;;;9.48;6.30;;;-5.90;99.90;;;;;;5011338;28;20426;-83
2022/12/18 09:52:41;;;;;;;12.63;7.07;;;-5.80;99.90;;;;;;5008618;28;20049;-83
2022/12/18 09:55:25;;;;;;;16.73;9.35;;;-5.70;99.90;;;;;;5011209;28;20420;-83
2022/12/18 09:58:22;;;;;;;22.05;11.70;;;-5.60;99.90;;;;;;5009452;28;20267;-83
2022/12/18 10:00:53;;;;;;;25.00;11.93;;;-5.40;99.90;;;;;;5007174;28;20038;-84
2022/12/18 10:03:21;;;;;;;18.00;10.35;;;-5.10;99.90;;;;;;5008781;28;20050;-83
2022/12/18 10:06:06;;;;;;;21.63;13.60;;;-5.10;99.90;;;;;;5010427;28;20045;-84
2022/12/18 10:08:53;;;;;;;37.75;12.43;;;-5.40;99.90;;;;;;5007971;28;20046;-82
2022/12/18 10:11:43;;;;;;;17.63;10.82;;;-5.40;99.90;;;;;;5008818;28;20045;-83
2022/12/18 10:14:39;;;;;;;29.50;13.25;;;-5.30;99.90;;;;;;5027777;28;20045;-83
2022/12/18 10:17:16;;;;;;;25.02;12.73;;;-5.20;99.90;;;;;;5024743;28;20061;-83
2022/12/18 10:19:59;;;;;;;31.65;12.95;;;-4.90;99.90;;;;;;5014855;28;20064;-83
2022/12/18 10:22:45;;;;;;;25.52;11.88;;;-4.70;99.90;;;;;;5029541;28;20393;-83
2022/12/18 10:25:24;;;;;;;22.83;13.57;;;-4.70;99.90;;;;;;5030218;28;20416;-84
2022/12/18 10:27:57;;;;;;;13.63;7.25;;;-4.80;99.90;;;;;;5007858;28;20054;-85
2022/12/18 10:30:26;;;;;;;30.45;14.85;;;-4.80;99.90;;;;;;4987520;28;20058;-83
2022/12/18 10:32:55;;;;;;;17.70;11.10;;;-4.80;99.90;;;;;;5002331;28;20429;-84
2022/12/18 10:35:26;;;;;;;22.23;11.32;;;-4.90;99.90;;;;;;5009748;28;20702;-84
2022/12/18 10:38:22;;;;;;;26.77;13.85;;;-4.70;99.90;;;;;;5007527;28;20046;-84
2022/12/18 10:41:08;;;;;;;18.52;12.43;;;-4.60;99.90;;;;;;5008830;28;20052;-83
2022/12/18 10:43:38;;;;;;;25.65;12.63;;;-4.70;99.90;;;;;;4991280;28;20065;-82
2022/12/18 10:46:09;;;;;;;29.00;16.40;;;-4.60;99.90;;;;;;5009009;28;20046;-83
2022/12/18 10:48:48;;;;;;;20.63;12.35;;;-4.60;99.90;;;;;;5003882;28;20202;-84
2022/12/18 10:51:24;;;;;;;19.53;11.40;;;-4.60;99.90;;;;;;5008856;28;20823;-83
2022/12/18 10:54:14;;;;;;;19.02;11.40;;;-4.70;99.90;;;;;;5004907;28;20297;-82
2022/12/18 10:56:43;;;;;;;30.35;15.15;;;-4.70;99.90;;;;;;4984773;28;20046;-83
2022/12/18 10:59:15;;;;;;;13.25;9.85;;;-4.60;99.90;;;;;;4982719;28;20679;-83
2022/12/18 11:01:57;;;;;;;84.25;43.80;;;-4.50;99.90;;;;;;4999697;28;20057;-83
2022/12/18 11:04:28;;;;;;;30.17;16.15;;;-4.40;99.90;;;;;;5002375;28;20457;-83
2022/12/18 11:06:58;;;;;;;38.83;18.37;;;-4.20;99.90;;;;;;5002012;28;20121;-83
2022/12/18 11:09:34;;;;;;;25.07;11.93;;;-4.20;99.90;;;;;;5000971;28;20101;-83
2022/12/18 11:12:14;;;;;;;21.17;11.02;;;-4.00;99.90;;;;;;5000698;28;20083;-82
2022/12/18 11:14:49;;;;;;;21.10;13.10;;;-4.10;99.90;;;;;;5002799;28;20060;-83
2022/12/18 11:17:32;;;;;;;18.90;13.45;;;-4.20;99.90;;;;;;5001806;28;20050;-83
2022/12/18 11:20:06;;;;;;;25.75;14.75;;;-4.20;99.90;;;;;;5006492;28;20041;-83
2022/12/18 11:22:38;;;;;;;24.83;14.43;;;-4.10;99.90;;;;;;5000135;28;20054;-83
2022/12/18 11:25:15;;;;;;;24.23;13.93;;;-4.00;99.90;;;;;;5002625;28;20041;-83
2022/12/18 11:28:29;;;;;;;8.18;7.50;;;-4.10;99.90;;;;;;5004750;28;20041;-83
2022/12/18 11:31:17;;;;;;;22.10;12.32;;;-4.20;99.90;;;;;;4994674;28;20080;-82
2022/12/18 11:33:59;;;;;;;27.75;10.80;;;-4.30;99.90;;;;;;5003522;28;20042;-83
2022/12/18 11:36:48;;;;;;;21.42;10.20;;;-4.40;99.90;;;;;;5007344;28;20394;-84
2022/12/18 11:39:36;;;;;;;31.27;13.50;;;-4.50;99.90;;;;;;5000455;28;20041;-83
2022/12/18 11:42:09;;;;;;;19.38;12.52;;;-4.60;99.90;;;;;;5006887;28;20273;-83
2022/12/18 11:45:11;;;;;;;25.13;11.88;;;-4.50;99.90;;;;;;5006093;28;20065;-84
2022/12/18 11:48:02;;;;;;;23.50;13.63;;;-4.40;99.90;;;;;;4999489;28;20058;-84
2022/12/18 11:50:44;;;;;;;17.30;12.52;;;-4.30;99.90;;;;;;4990482;28;20053;-84
2022/12/18 11:53:12;;;;;;;;;;;-4.20;99.90;;;;;;5003779;28;21476;-83
2022/12/18 11:56:25;;;;;;;15.02;9.43;;;-4.20;99.90;;;;;;5002554;28;19932;-82
2022/12/18 11:59:25;;;;;;;27.55;14.30;;;-4.20;99.90;;;;;;4986046;28;20054;-83
2022/12/18 12:02:41;;;;;;;4.85;4.47;;;-4.20;99.90;;;;;;4998971;28;20046;-83
2022/12/18 12:06:06;;;;;;;13.60;10.98;;;-4.30;99.90;;;;;;5001169;28;20041;-83
2022/12/18 12:09:01;;;;;;;29.05;9.27;;;-4.50;99.90;;;;;;4971427;28;20050;-82
2022/12/18 12:11:34;;;;;;;21.95;11.63;;;-4.50;99.90;;;;;;4968925;28;20051;-82
2022/12/18 12:14:43;;;;;;;27.05;12.95;;;-4.50;99.90;;;;;;4999512;28;20398;-82
2022/12/18 12:17:28;;;;;;;8.90;7.80;;;-4.50;99.90;;;;;;4969298;28;20050;-82
2022/12/18 12:20:08;;;;;;;22.42;12.35;;;-4.50;99.90;;;;;;5012412;28;20556;-82
2022/12/18 12:22:53;;;;;;;23.45;13.07;;;-4.70;99.90;;;;;;5001073;28;20061;-82
2022/12/18 12:25:35;;;;;;;29.92;16.70;;;-4.70;99.90;;;;;;4995060;28;20387;-82
2022/12/18 12:28:29;;;;;;;23.73;15.10;;;-4.60;99.90;;;;;;4999760;28;20431;-83
2022/12/18 12:31:22;;;;;;;18.33;11.40;;;-4.40;99.90;;;;;;4984901;28;20053;-83
2022/12/18 12:34:11;;;;;;;20.73;13.00;;;-4.40;99.90;;;;;;5008442;28;20045;-83
2022/12/18 12:36:57;;;;;;;22.75;12.35;;;-4.20;99.90;;;;;;5008391;28;20049;-82
2022/12/18 12:39:35;;;;;;;14.07;9.70;;;-4.20;99.90;;;;;;5008422;28;20052;-83
2022/12/18 12:44:59;;;;;;;7.40;6.65;;;-4.20;99.90;;;;;;5014712;28;20570;-83
2022/12/18 12:47:32;;;;;;;20.63;11.07;;;-4.40;99.90;;;;;;5010790;28;20045;-82
2022/12/18 12:50:04;;;;;;;11.93;8.30;;;-4.70;99.90;;;;;;5027560;28;20421;-83
2022/12/18 12:52:51;;;;;;;22.75;11.27;;;-4.80;99.90;;;;;;4993493;28;20362;-82
2022/12/18 12:55:24;;;;;;;19.63;10.38;;;-4.80;99.90;;;;;;5012905;28;20056;-83
2022/12/18 12:58:05;;;;;;;34.67;12.40;;;-4.70;99.90;;;;;;5008200;28;20038;-83
2022/12/18 13:00:49;;;;;;;19.65;9.18;;;-4.70;99.90;;;;;;4995779;28;20046;-83
2022/12/18 13:03:59;;;;;;;25.65;13.77;;;-4.70;99.90;;;;;;5008729;28;20038;-83
2022/12/18 13:07:00;;;;;;;19.73;12.20;;;-4.80;99.90;;;;;;5023017;28;20049;-83
2022/12/18 13:09:32;;;;;;;25.02;14.63;;;-4.70;99.90;;;;;;5011932;28;20057;-83
2022/12/18 13:15:14;;;;;;;26.33;13.68;;;-4.90;99.90;;;;;;5003979;28;20057;-83
2022/12/18 13:17:41;;;;;;;20.83;12.38;;;-4.80;99.90;;;;;;5010438;28;20046;-83
2022/12/18 13:20:13;;;;;;;15.07;9.45;;;-4.80;99.90;;;;;;5019266;28;20053;-84
2022/12/18 13:22:45;;;;;;;18.77;11.32;;;-4.80;99.90;;;;;;5027307;28;20049;-82
2022/12/18 13:25:36;;;;;;;16.52;8.65;;;-4.80;99.90;;;;;;5028877;28;20472;-86